Terminal Aerodrome Forecast
Issued by NWS

Home | Current Version | Previous Version | Text Only | Print | Product List | Glossary On
Versions: 1 2 3 4 5 6 7 8 9 10 11 12 13 14 15 16 17 18 19 20 21 22 23 24 25 26 27 28 29 30 31
000
FTUS44 KEWX 290538
TAFSSF
TAF
KSSF 290538Z 2906/3006 09009KT P6SM VCTS FEW014 SCT040CB OVC120
      TEMPO 2906/2909 3SM TSRA OVC015CB
     FM291000 12007KT P6SM OVC007
     FM291200 10005KT 5SM BR OVC004
     FM291500 12007KT P6SM OVC012
     FM291700 13011KT P6SM BKN040
     FM300400 13010KT P6SM OVC018=

USA.gov is the U.S. government's official web portal to all federal, state and local government web resources and services.